<?xml version="1.0" encoding="UTF-8" standalone="no" ?>
<gpx xmlns="http://www.topografix.com/GPX/1/1" xmlns:xsi="http://www.w3.org/2001/XMLSchema-instance" xsi:schemaLocation="http://www.topografix.com/GPX/1/1 http://www.topografix.com/GPX/1/1/gpx.xsd" version="1.1" creator="VisuGPX - https://www.visugpx.com">
  <metadata>
    <name>Sortie Moto</name>
  </metadata>
  <trk>
    <name><![CDATA[Journal actif: 2020-04-15 10:30]]></name>
    <trkseg>
      <trkpt lat="46.00199" lon="6.20006">
        <ele>566.35</ele>
        <time>2020-04-15T08:30:15Z</time>
      </trkpt>
      <trkpt lat="46.00198" lon="6.20009">
        <ele>567.32</ele>
        <time>2020-04-15T08:30:16Z</time>
      </trkpt>
      <trkpt lat="46.00197" lon="6.20013">
        <ele>567.32</ele>
        <time>2020-04-15T08:30:17Z</time>
      </trkpt>
      <trkpt lat="46.00195" lon="6.20017">
        <ele>568.76</ele>
        <time>2020-04-15T08:30:18Z</time>
      </trkpt>
      <trkpt lat="46.00193" lon="6.20022">
        <ele>570.68</ele>
        <time>2020-04-15T08:30:19Z</time>
      </trkpt>
      <trkpt lat="46.00192" lon="6.20026">
        <ele>571.16</ele>
        <time>2020-04-15T08:30:20Z</time>
      </trkpt>
      <trkpt lat="46.00191" lon="6.20028">
        <ele>573.08</ele>
        <time>2020-04-15T08:30:21Z</time>
      </trkpt>
      <trkpt lat="46.00191" lon="6.20026">
        <ele>574.04</ele>
        <time>2020-04-15T08:30:22Z</time>
      </trkpt>
      <trkpt lat="46.00194" lon="6.20019">
        <ele>572.6</ele>
        <time>2020-04-15T08:30:26Z</time>
      </trkpt>
      <trkpt lat="46.00197" lon="6.20011">
        <ele>572.6</ele>
        <time>2020-04-15T08:30:27Z</time>
      </trkpt>
      <trkpt lat="46.00203" lon="6.19996">
        <ele>572.12</ele>
        <time>2020-04-15T08:30:28Z</time>
      </trkpt>
      <trkpt lat="46.00238" lon="6.19904">
        <ele>571.16</ele>
        <time>2020-04-15T08:30:34Z</time>
      </trkpt>
      <trkpt lat="46.00278" lon="6.19795">
        <ele>568.28</ele>
        <time>2020-04-15T08:30:39Z</time>
      </trkpt>
      <trkpt lat="46.00281" lon="6.19772">
        <ele>567.8</ele>
        <time>2020-04-15T08:30:40Z</time>
      </trkpt>
      <trkpt lat="46.00283" lon="6.19747">
        <ele>567.8</ele>
        <time>2020-04-15T08:30:41Z</time>
      </trkpt>
      <trkpt lat="46.00286" lon="6.19721">
        <ele>567.8</ele>
        <time>2020-04-15T08:30:42Z</time>
      </trkpt>
      <trkpt lat="46.00287" lon="6.19694">
        <ele>567.8</ele>
        <time>2020-04-15T08:30:43Z</time>
      </trkpt>
      <trkpt lat="46.00297" lon="6.19469">
        <ele>566.83</ele>
        <time>2020-04-15T08:30:51Z</time>
      </trkpt>
      <trkpt lat="46.00303" lon="6.1944">
        <ele>566.83</ele>
        <time>2020-04-15T08:30:52Z</time>
      </trkpt>
      <trkpt lat="46.00377" lon="6.19064">
        <ele>564.91</ele>
        <time>2020-04-15T08:31:06Z</time>
      </trkpt>
      <trkpt lat="46.00398" lon="6.18969">
        <ele>559.62</ele>
        <time>2020-04-15T08:31:12Z</time>
      </trkpt>
      <trkpt lat="46.00399" lon="6.1896">
        <ele>559.14</ele>
        <time>2020-04-15T08:31:13Z</time>
      </trkpt>
      <trkpt lat="46.00401" lon="6.18955">
        <ele>558.18</ele>
        <time>2020-04-15T08:31:14Z</time>
      </trkpt>
      <trkpt lat="46.00397" lon="6.18953">
        <ele>557.7</ele>
        <time>2020-04-15T08:31:15Z</time>
      </trkpt>
      <trkpt lat="46.00393" lon="6.18951">
        <ele>557.22</ele>
        <time>2020-04-15T08:31:16Z</time>
      </trkpt>
      <trkpt lat="46.00388" lon="6.18948">
        <ele>556.74</ele>
        <time>2020-04-15T08:31:17Z</time>
      </trkpt>
      <trkpt lat="46.00382" lon="6.18944">
        <ele>556.26</ele>
        <time>2020-04-15T08:31:18Z</time>
      </trkpt>
      <trkpt lat="46.00374" lon="6.18938">
        <ele>555.78</ele>
        <time>2020-04-15T08:31:19Z</time>
      </trkpt>
      <trkpt lat="46.00367" lon="6.1893">
        <ele>556.26</ele>
        <time>2020-04-15T08:31:20Z</time>
      </trkpt>
      <trkpt lat="46.00361" lon="6.1892">
        <ele>556.26</ele>
        <time>2020-04-15T08:31:21Z</time>
      </trkpt>
      <trkpt lat="46.00358" lon="6.18909">
        <ele>556.74</ele>
        <time>2020-04-15T08:31:22Z</time>
      </trkpt>
      <trkpt lat="46.0036" lon="6.18895">
        <ele>557.22</ele>
        <time>2020-04-15T08:31:23Z</time>
      </trkpt>
      <trkpt lat="46.00366" lon="6.18884">
        <ele>557.7</ele>
        <time>2020-04-15T08:31:24Z</time>
      </trkpt>
      <trkpt lat="46.00374" lon="6.1888">
        <ele>557.7</ele>
        <time>2020-04-15T08:31:25Z</time>
      </trkpt>
      <trkpt lat="46.00381" lon="6.18876">
        <ele>557.7</ele>
        <time>2020-04-15T08:31:26Z</time>
      </trkpt>
      <trkpt lat="46.00389" lon="6.1888">
        <ele>557.7</ele>
        <time>2020-04-15T08:31:27Z</time>
      </trkpt>
      <trkpt lat="46.00398" lon="6.18884">
        <ele>558.18</ele>
        <time>2020-04-15T08:31:28Z</time>
      </trkpt>
      <trkpt lat="46.00409" lon="6.1889">
        <ele>559.14</ele>
        <time>2020-04-15T08:31:29Z</time>
      </trkpt>
      <trkpt lat="46.00422" lon="6.18897">
        <ele>559.62</ele>
        <time>2020-04-15T08:31:30Z</time>
      </trkpt>
      <trkpt lat="46.00499" lon="6.18999">
        <ele>564.43</ele>
        <time>2020-04-15T08:31:35Z</time>
      </trkpt>
      <trkpt lat="46.00583" lon="6.19195">
        <ele>574.04</ele>
        <time>2020-04-15T08:31:41Z</time>
      </trkpt>
      <trkpt lat="46.00648" lon="6.19384">
        <ele>586.54</ele>
        <time>2020-04-15T08:31:47Z</time>
      </trkpt>
      <trkpt lat="46.00689" lon="6.19491">
        <ele>594.23</ele>
        <time>2020-04-15T08:31:53Z</time>
      </trkpt>
      <trkpt lat="46.00693" lon="6.19502">
        <ele>595.19</ele>
        <time>2020-04-15T08:31:54Z</time>
      </trkpt>
      <trkpt lat="46.00694" lon="6.19514">
        <ele>595.67</ele>
        <time>2020-04-15T08:31:55Z</time>
      </trkpt>
      <trkpt lat="46.00692" lon="6.1953">
        <ele>596.15</ele>
        <time>2020-04-15T08:31:56Z</time>
      </trkpt>
      <trkpt lat="46.00685" lon="6.1954">
        <ele>596.64</ele>
        <time>2020-04-15T08:31:57Z</time>
      </trkpt>
      <trkpt lat="46.00676" lon="6.19539">
        <ele>597.12</ele>
        <time>2020-04-15T08:31:58Z</time>
      </trkpt>
      <trkpt lat="46.0067" lon="6.19536">
        <ele>597.6</ele>
        <time>2020-04-15T08:31:59Z</time>
      </trkpt>
      <trkpt lat="46.00662" lon="6.19525">
        <ele>598.56</ele>
        <time>2020-04-15T08:32:00Z</time>
      </trkpt>
      <trkpt lat="46.00656" lon="6.19512">
        <ele>599.04</ele>
        <time>2020-04-15T08:32:01Z</time>
      </trkpt>
      <trkpt lat="46.00649" lon="6.19496">
        <ele>599.52</ele>
        <time>2020-04-15T08:32:02Z</time>
      </trkpt>
      <trkpt lat="46.00596" lon="6.19384">
        <ele>603.85</ele>
        <time>2020-04-15T08:32:07Z</time>
      </trkpt>
      <trkpt lat="46.0056" lon="6.19329">
        <ele>606.25</ele>
        <time>2020-04-15T08:32:10Z</time>
      </trkpt>
      <trkpt lat="46.00547" lon="6.19319">
        <ele>607.21</ele>
        <time>2020-04-15T08:32:11Z</time>
      </trkpt>
      <trkpt lat="46.00534" lon="6.19309">
        <ele>608.17</ele>
        <time>2020-04-15T08:32:12Z</time>
      </trkpt>
      <trkpt lat="46.00522" lon="6.19308">
        <ele>609.61</ele>
        <time>2020-04-15T08:32:13Z</time>
      </trkpt>
      <trkpt lat="46.00511" lon="6.19311">
        <ele>611.06</ele>
        <time>2020-04-15T08:32:14Z</time>
      </trkpt>
      <trkpt lat="46.005" lon="6.19318">
        <ele>612.02</ele>
        <time>2020-04-15T08:32:15Z</time>
      </trkpt>
      <trkpt lat="46.00493" lon="6.19329">
        <ele>612.98</ele>
        <time>2020-04-15T08:32:16Z</time>
      </trkpt>
      <trkpt lat="46.00486" lon="6.19344">
        <ele>613.46</ele>
        <time>2020-04-15T08:32:17Z</time>
      </trkpt>
      <trkpt lat="46.0048" lon="6.19359">
        <ele>614.42</ele>
        <time>2020-04-15T08:32:18Z</time>
      </trkpt>
      <trkpt lat="46.0048" lon="6.19378">
        <ele>614.9</ele>
        <time>2020-04-15T08:32:19Z</time>
      </trkpt>
      <trkpt lat="46.00485" lon="6.19395">
        <ele>615.38</ele>
        <time>2020-04-15T08:32:20Z</time>
      </trkpt>
      <trkpt lat="46.00492" lon="6.19414">
        <ele>615.86</ele>
        <time>2020-04-15T08:32:21Z</time>
      </trkpt>
      <trkpt lat="46.00501" lon="6.19433">
        <ele>616.82</ele>
        <time>2020-04-15T08:32:22Z</time>
      </trkpt>
      <trkpt lat="46.00513" lon="6.19452">
        <ele>617.3</ele>
        <time>2020-04-15T08:32:23Z</time>
      </trkpt>
      <trkpt lat="46.00525" lon="6.19472">
        <ele>618.75</ele>
        <time>2020-04-15T08:32:24Z</time>
      </trkpt>
      <trkpt lat="46.00542" lon="6.19488">
        <ele>619.71</ele>
        <time>2020-04-15T08:32:25Z</time>
      </trkpt>
      <trkpt lat="46.0056" lon="6.19505">
        <ele>620.67</ele>
        <time>2020-04-15T08:32:26Z</time>
      </trkpt>
      <trkpt lat="46.00578" lon="6.19522">
        <ele>622.11</ele>
        <time>2020-04-15T08:32:27Z</time>
      </trkpt>
      <trkpt lat="46.00595" lon="6.19543">
        <ele>623.07</ele>
        <time>2020-04-15T08:32:28Z</time>
      </trkpt>
      <trkpt lat="46.0061" lon="6.19566">
        <ele>624.51</ele>
        <time>2020-04-15T08:32:29Z</time>
      </trkpt>
      <trkpt lat="46.00621" lon="6.19594">
        <ele>625.47</ele>
        <time>2020-04-15T08:32:30Z</time>
      </trkpt>
      <trkpt lat="46.00633" lon="6.19624">
        <ele>626.92</ele>
        <time>2020-04-15T08:32:31Z</time>
      </trkpt>
      <trkpt lat="46.00704" lon="6.19828">
        <ele>635.57</ele>
        <time>2020-04-15T08:32:37Z</time>
      </trkpt>
      <trkpt lat="46.00761" lon="6.20103">
        <ele>645.66</ele>
        <time>2020-04-15T08:32:45Z</time>
      </trkpt>
      <trkpt lat="46.00836" lon="6.20382">
        <ele>656.24</ele>
        <time>2020-04-15T08:32:55Z</time>
      </trkpt>
      <trkpt lat="46.00871" lon="6.205">
        <ele>658.64</ele>
        <time>2020-04-15T08:33:00Z</time>
      </trkpt>
      <trkpt lat="46.00879" lon="6.20523">
        <ele>659.6</ele>
        <time>2020-04-15T08:33:01Z</time>
      </trkpt>
      <trkpt lat="46.0089" lon="6.20543">
        <ele>660.08</ele>
        <time>2020-04-15T08:33:02Z</time>
      </trkpt>
      <trkpt lat="46.00903" lon="6.20562">
        <ele>660.56</ele>
        <time>2020-04-15T08:33:03Z</time>
      </trkpt>
      <trkpt lat="46.00918" lon="6.20581">
        <ele>661.04</ele>
        <time>2020-04-15T08:33:04Z</time>
      </trkpt>
      <trkpt lat="46.01061" lon="6.2075">
        <ele>661.52</ele>
        <time>2020-04-15T08:33:12Z</time>
      </trkpt>
      <trkpt lat="46.01278" lon="6.21013">
        <ele>664.89</ele>
        <time>2020-04-15T08:33:23Z</time>
      </trkpt>
      <trkpt lat="46.01406" lon="6.21199">
        <ele>669.7</ele>
        <time>2020-04-15T08:33:30Z</time>
      </trkpt>
      <trkpt lat="46.01444" lon="6.21247">
        <ele>670.66</ele>
        <time>2020-04-15T08:33:32Z</time>
      </trkpt>
      <trkpt lat="46.01464" lon="6.21269">
        <ele>671.62</ele>
        <time>2020-04-15T08:33:33Z</time>
      </trkpt>
      <trkpt lat="46.01655" lon="6.21461">
        <ele>675.94</ele>
        <time>2020-04-15T08:33:42Z</time>
      </trkpt>
      <trkpt lat="46.01706" lon="6.2153">
        <ele>676.91</ele>
        <time>2020-04-15T08:33:45Z</time>
      </trkpt>
      <trkpt lat="46.0172" lon="6.21558">
        <ele>677.39</ele>
        <time>2020-04-15T08:33:46Z</time>
      </trkpt>
      <trkpt lat="46.01733" lon="6.21587">
        <ele>677.87</ele>
        <time>2020-04-15T08:33:47Z</time>
      </trkpt>
      <trkpt lat="46.01849" lon="6.21873">
        <ele>679.31</ele>
        <time>2020-04-15T08:33:56Z</time>
      </trkpt>
      <trkpt lat="46.01928" lon="6.22153">
        <ele>683.15</ele>
        <time>2020-04-15T08:34:04Z</time>
      </trkpt>
      <trkpt lat="46.01986" lon="6.22526">
        <ele>688.92</ele>
        <time>2020-04-15T08:34:14Z</time>
      </trkpt>
      <trkpt lat="46.02037" lon="6.22875">
        <ele>698.05</ele>
        <time>2020-04-15T08:34:24Z</time>
      </trkpt>
      <trkpt lat="46.02042" lon="6.22906">
        <ele>699.02</ele>
        <time>2020-04-15T08:34:25Z</time>
      </trkpt>
      <trkpt lat="46.0205" lon="6.22936">
        <ele>699.98</ele>
        <time>2020-04-15T08:34:26Z</time>
      </trkpt>
      <trkpt lat="46.02059" lon="6.22965">
        <ele>700.46</ele>
        <time>2020-04-15T08:34:27Z</time>
      </trkpt>
      <trkpt lat="46.02069" lon="6.2299">
        <ele>701.42</ele>
        <time>2020-04-15T08:34:28Z</time>
      </trkpt>
      <trkpt lat="46.02081" lon="6.23012">
        <ele>701.9</ele>
        <time>2020-04-15T08:34:29Z</time>
      </trkpt>
      <trkpt lat="46.02094" lon="6.23031">
        <ele>702.38</ele>
        <time>2020-04-15T08:34:30Z</time>
      </trkpt>
      <trkpt lat="46.02109" lon="6.23049">
        <ele>702.86</ele>
        <time>2020-04-15T08:34:31Z</time>
      </trkpt>
      <trkpt lat="46.02122" lon="6.23066">
        <ele>703.34</ele>
        <time>2020-04-15T08:34:32Z</time>
      </trkpt>
      <trkpt lat="46.02135" lon="6.23083">
        <ele>703.34</ele>
        <time>2020-04-15T08:34:33Z</time>
      </trkpt>
      <trkpt lat="46.02146" lon="6.231">
        <ele>703.82</ele>
        <time>2020-04-15T08:34:34Z</time>
      </trkpt>
      <trkpt lat="46.02157" lon="6.23116">
        <ele>704.3</ele>
        <time>2020-04-15T08:34:35Z</time>
      </trkpt>
      <trkpt lat="46.02227" lon="6.23254">
        <ele>708.15</ele>
        <time>2020-04-15T08:34:44Z</time>
      </trkpt>
      <trkpt lat="46.02277" lon="6.23356">
        <ele>709.59</ele>
        <time>2020-04-15T08:34:50Z</time>
      </trkpt>
      <trkpt lat="46.02288" lon="6.23373">
        <ele>710.07</ele>
        <time>2020-04-15T08:34:51Z</time>
      </trkpt>
      <trkpt lat="46.023" lon="6.23386">
        <ele>710.55</ele>
        <time>2020-04-15T08:34:52Z</time>
      </trkpt>
      <trkpt lat="46.02315" lon="6.23399">
        <ele>711.03</ele>
        <time>2020-04-15T08:34:53Z</time>
      </trkpt>
      <trkpt lat="46.02329" lon="6.23412">
        <ele>712.47</ele>
        <time>2020-04-15T08:34:54Z</time>
      </trkpt>
      <trkpt lat="46.02407" lon="6.23486">
        <ele>717.28</ele>
        <time>2020-04-15T08:34:59Z</time>
      </trkpt>
      <trkpt lat="46.0242" lon="6.23507">
        <ele>717.76</ele>
        <time>2020-04-15T08:35:00Z</time>
      </trkpt>
      <trkpt lat="46.02432" lon="6.23529">
        <ele>718.24</ele>
        <time>2020-04-15T08:35:01Z</time>
      </trkpt>
      <trkpt lat="46.02442" lon="6.23553">
        <ele>718.72</ele>
        <time>2020-04-15T08:35:02Z</time>
      </trkpt>
      <trkpt lat="46.02453" lon="6.23577">
        <ele>719.2</ele>
        <time>2020-04-15T08:35:03Z</time>
      </trkpt>
      <trkpt lat="46.02538" lon="6.2371">
        <ele>724.01</ele>
        <time>2020-04-15T08:35:09Z</time>
      </trkpt>
      <trkpt lat="46.02557" lon="6.23726">
        <ele>724.97</ele>
        <time>2020-04-15T08:35:10Z</time>
      </trkpt>
      <trkpt lat="46.02577" lon="6.23737">
        <ele>725.93</ele>
        <time>2020-04-15T08:35:11Z</time>
      </trkpt>
      <trkpt lat="46.02599" lon="6.23747">
        <ele>726.89</ele>
        <time>2020-04-15T08:35:12Z</time>
      </trkpt>
      <trkpt lat="46.02622" lon="6.23754">
        <ele>728.34</ele>
        <time>2020-04-15T08:35:13Z</time>
      </trkpt>
      <trkpt lat="46.02646" lon="6.2376">
        <ele>729.3</ele>
        <time>2020-04-15T08:35:14Z</time>
      </trkpt>
      <trkpt lat="46.02867" lon="6.23804">
        <ele>737.47</ele>
        <time>2020-04-15T08:35:22Z</time>
      </trkpt>
      <trkpt lat="46.03028" lon="6.23885">
        <ele>741.31</ele>
        <time>2020-04-15T08:35:28Z</time>
      </trkpt>
      <trkpt lat="46.03052" lon="6.23904">
        <ele>741.79</ele>
        <time>2020-04-15T08:35:29Z</time>
      </trkpt>
      <trkpt lat="46.03074" lon="6.23929">
        <ele>742.28</ele>
        <time>2020-04-15T08:35:30Z</time>
      </trkpt>
      <trkpt lat="46.03231" lon="6.24108">
        <ele>744.68</ele>
        <time>2020-04-15T08:35:38Z</time>
      </trkpt>
      <trkpt lat="46.03305" lon="6.24225">
        <ele>747.08</ele>
        <time>2020-04-15T08:35:44Z</time>
      </trkpt>
      <trkpt lat="46.03318" lon="6.24239">
        <ele>747.56</ele>
        <time>2020-04-15T08:35:45Z</time>
      </trkpt>
      <trkpt lat="46.03332" lon="6.2425">
        <ele>747.56</ele>
        <time>2020-04-15T08:35:46Z</time>
      </trkpt>
      <trkpt lat="46.03346" lon="6.2426">
        <ele>747.56</ele>
        <time>2020-04-15T08:35:47Z</time>
      </trkpt>
      <trkpt lat="46.03362" lon="6.24267">
        <ele>748.04</ele>
        <time>2020-04-15T08:35:48Z</time>
      </trkpt>
      <trkpt lat="46.03378" lon="6.24272">
        <ele>748.52</ele>
        <time>2020-04-15T08:35:49Z</time>
      </trkpt>
      <trkpt lat="46.03394" lon="6.24269">
        <ele>749</ele>
        <time>2020-04-15T08:35:50Z</time>
      </trkpt>
      <trkpt lat="46.0341" lon="6.24266">
        <ele>749.49</ele>
        <time>2020-04-15T08:35:51Z</time>
      </trkpt>
      <trkpt lat="46.03426" lon="6.24257">
        <ele>749.97</ele>
        <time>2020-04-15T08:35:52Z</time>
      </trkpt>
      <trkpt lat="46.03441" lon="6.24247">
        <ele>750.45</ele>
        <time>2020-04-15T08:35:53Z</time>
      </trkpt>
      <trkpt lat="46.03451" lon="6.24231">
        <ele>750.93</ele>
        <time>2020-04-15T08:35:54Z</time>
      </trkpt>
      <trkpt lat="46.03462" lon="6.24214">
        <ele>751.89</ele>
        <time>2020-04-15T08:35:55Z</time>
      </trkpt>
      <trkpt lat="46.03473" lon="6.24197">
        <ele>752.85</ele>
        <time>2020-04-15T08:35:56Z</time>
      </trkpt>
      <trkpt lat="46.03485" lon="6.24179">
        <ele>753.81</ele>
        <time>2020-04-15T08:35:57Z</time>
      </trkpt>
      <trkpt lat="46.0352" lon="6.24119">
        <ele>756.21</ele>
        <time>2020-04-15T08:36:00Z</time>
      </trkpt>
      <trkpt lat="46.03534" lon="6.24101">
        <ele>757.18</ele>
        <time>2020-04-15T08:36:01Z</time>
      </trkpt>
      <trkpt lat="46.0355" lon="6.24087">
        <ele>758.14</ele>
        <time>2020-04-15T08:36:02Z</time>
      </trkpt>
      <trkpt lat="46.03569" lon="6.24079">
        <ele>759.58</ele>
        <time>2020-04-15T08:36:03Z</time>
      </trkpt>
      <trkpt lat="46.03587" lon="6.24073">
        <ele>760.54</ele>
        <time>2020-04-15T08:36:04Z</time>
      </trkpt>
      <trkpt lat="46.03607" lon="6.24072">
        <ele>761.5</ele>
        <time>2020-04-15T08:36:05Z</time>
      </trkpt>
      <trkpt lat="46.03626" lon="6.24074">
        <ele>762.46</ele>
        <time>2020-04-15T08:36:06Z</time>
      </trkpt>
      <trkpt lat="46.03646" lon="6.24078">
        <ele>762.94</ele>
        <time>2020-04-15T08:36:07Z</time>
      </trkpt>
      <trkpt lat="46.03664" lon="6.24088">
        <ele>763.9</ele>
        <time>2020-04-15T08:36:08Z</time>
      </trkpt>
      <trkpt lat="46.03681" lon="6.24104">
        <ele>764.87</ele>
        <time>2020-04-15T08:36:09Z</time>
      </trkpt>
      <trkpt lat="46.03697" lon="6.24119">
        <ele>765.83</ele>
        <time>2020-04-15T08:36:10Z</time>
      </trkpt>
      <trkpt lat="46.03712" lon="6.24137">
        <ele>767.27</ele>
        <time>2020-04-15T08:36:11Z</time>
      </trkpt>
      <trkpt lat="46.03725" lon="6.24156">
        <ele>768.23</ele>
        <time>2020-04-15T08:36:12Z</time>
      </trkpt>
      <trkpt lat="46.03738" lon="6.24175">
        <ele>769.67</ele>
        <time>2020-04-15T08:36:13Z</time>
      </trkpt>
      <trkpt lat="46.0375" lon="6.24194">
        <ele>770.63</ele>
        <time>2020-04-15T08:36:14Z</time>
      </trkpt>
      <trkpt lat="46.03761" lon="6.24212">
        <ele>772.08</ele>
        <time>2020-04-15T08:36:15Z</time>
      </trkpt>
      <trkpt lat="46.03769" lon="6.24232">
        <ele>773.04</ele>
        <time>2020-04-15T08:36:16Z</time>
      </trkpt>
      <trkpt lat="46.03776" lon="6.24253">
        <ele>774.48</ele>
        <time>2020-04-15T08:36:17Z</time>
      </trkpt>
      <trkpt lat="46.03783" lon="6.24273">
        <ele>774.96</ele>
        <time>2020-04-15T08:36:18Z</time>
      </trkpt>
      <trkpt lat="46.0379" lon="6.24293">
        <ele>775.92</ele>
        <time>2020-04-15T08:36:19Z</time>
      </trkpt>
      <trkpt lat="46.03831" lon="6.24482">
        <ele>784.09</ele>
        <time>2020-04-15T08:36:28Z</time>
      </trkpt>
      <trkpt lat="46.03883" lon="6.24615">
        <ele>789.38</ele>
        <time>2020-04-15T08:36:35Z</time>
      </trkpt>
      <trkpt lat="46.03925" lon="6.24662">
        <ele>791.3</ele>
        <time>2020-04-15T08:36:38Z</time>
      </trkpt>
      <trkpt lat="46.0394" lon="6.24675">
        <ele>791.78</ele>
        <time>2020-04-15T08:36:39Z</time>
      </trkpt>
      <trkpt lat="46.03956" lon="6.24685">
        <ele>792.26</ele>
        <time>2020-04-15T08:36:40Z</time>
      </trkpt>
      <trkpt lat="46.03972" lon="6.24695">
        <ele>792.26</ele>
        <time>2020-04-15T08:36:41Z</time>
      </trkpt>
      <trkpt lat="46.03988" lon="6.24702">
        <ele>792.26</ele>
        <time>2020-04-15T08:36:42Z</time>
      </trkpt>
      <trkpt lat="46.04004" lon="6.24707">
        <ele>792.26</ele>
        <time>2020-04-15T08:36:43Z</time>
      </trkpt>
      <trkpt lat="46.04131" lon="6.24774">
        <ele>788.9</ele>
        <time>2020-04-15T08:36:51Z</time>
      </trkpt>
      <trkpt lat="46.04239" lon="6.24915">
        <ele>785.05</ele>
        <time>2020-04-15T08:36:59Z</time>
      </trkpt>
      <trkpt lat="46.04353" lon="6.25104">
        <ele>791.3</ele>
        <time>2020-04-15T08:37:09Z</time>
      </trkpt>
      <trkpt lat="46.04395" lon="6.25268">
        <ele>798.03</ele>
        <time>2020-04-15T08:37:16Z</time>
      </trkpt>
      <trkpt lat="46.04431" lon="6.25421">
        <ele>799.47</ele>
        <time>2020-04-15T08:37:20Z</time>
      </trkpt>
      <trkpt lat="46.04477" lon="6.25556">
        <ele>800.92</ele>
        <time>2020-04-15T08:37:25Z</time>
      </trkpt>
      <trkpt lat="46.04587" lon="6.25789">
        <ele>800.92</ele>
        <time>2020-04-15T08:37:36Z</time>
      </trkpt>
      <trkpt lat="46.04728" lon="6.26078">
        <ele>798.03</ele>
        <time>2020-04-15T08:37:49Z</time>
      </trkpt>
      <trkpt lat="46.04854" lon="6.26332">
        <ele>789.38</ele>
        <time>2020-04-15T08:38:01Z</time>
      </trkpt>
      <trkpt lat="46.04947" lon="6.26445">
        <ele>783.61</ele>
        <time>2020-04-15T08:38:08Z</time>
      </trkpt>
      <trkpt lat="46.05084" lon="6.26583">
        <ele>774.96</ele>
        <time>2020-04-15T08:38:17Z</time>
      </trkpt>
      <trkpt lat="46.05141" lon="6.2674">
        <ele>769.67</ele>
        <time>2020-04-15T08:38:24Z</time>
      </trkpt>
      <trkpt lat="46.05144" lon="6.26916">
        <ele>766.31</ele>
        <time>2020-04-15T08:38:31Z</time>
      </trkpt>
      <trkpt lat="46.05124" lon="6.27212">
        <ele>762.94</ele>
        <time>2020-04-15T08:38:42Z</time>
      </trkpt>
      <trkpt lat="46.05132" lon="6.27357">
        <ele>759.1</ele>
        <time>2020-04-15T08:38:46Z</time>
      </trkpt>
      <trkpt lat="46.05177" lon="6.27608">
        <ele>753.81</ele>
        <time>2020-04-15T08:38:52Z</time>
      </trkpt>
      <trkpt lat="46.05264" lon="6.27882">
        <ele>748.52</ele>
        <time>2020-04-15T08:39:00Z</time>
      </trkpt>
      <trkpt lat="46.05358" lon="6.2815">
        <ele>744.68</ele>
        <time>2020-04-15T08:39:10Z</time>
      </trkpt>
      <trkpt lat="46.05414" lon="6.28309">
        <ele>740.83</ele>
        <time>2020-04-15T08:39:18Z</time>
      </trkpt>
      <trkpt lat="46.05452" lon="6.28415">
        <ele>737.47</ele>
        <time>2020-04-15T08:39:26Z</time>
      </trkpt>
      <trkpt lat="46.05491" lon="6.28528">
        <ele>735.55</ele>
        <time>2020-04-15T08:39:30Z</time>
      </trkpt>
      <trkpt lat="46.05556" lon="6.28715">
        <ele>731.22</ele>
        <time>2020-04-15T08:39:36Z</time>
      </trkpt>
      <trkpt lat="46.0564" lon="6.28904">
        <ele>722.57</ele>
        <time>2020-04-15T08:39:44Z</time>
      </trkpt>
      <trkpt lat="46.0574" lon="6.28991">
        <ele>716.8</ele>
        <time>2020-04-15T08:39:50Z</time>
      </trkpt>
      <trkpt lat="46.0586" lon="6.29005">
        <ele>711.03</ele>
        <time>2020-04-15T08:39:56Z</time>
      </trkpt>
      <trkpt lat="46.06043" lon="6.28951">
        <ele>700.94</ele>
        <time>2020-04-15T08:40:05Z</time>
      </trkpt>
      <trkpt lat="46.06247" lon="6.28882">
        <ele>689.88</ele>
        <time>2020-04-15T08:40:14Z</time>
      </trkpt>
      <trkpt lat="46.06369" lon="6.28848">
        <ele>681.71</ele>
        <time>2020-04-15T08:40:20Z</time>
      </trkpt>
      <trkpt lat="46.06412" lon="6.28839">
        <ele>677.39</ele>
        <time>2020-04-15T08:40:23Z</time>
      </trkpt>
      <trkpt lat="46.06423" lon="6.28837">
        <ele>676.42</ele>
        <time>2020-04-15T08:40:24Z</time>
      </trkpt>
      <trkpt lat="46.0644" lon="6.28859">
        <ele>674.5</ele>
        <time>2020-04-15T08:40:26Z</time>
      </trkpt>
      <trkpt lat="46.06453" lon="6.28852">
        <ele>674.02</ele>
        <time>2020-04-15T08:40:27Z</time>
      </trkpt>
      <trkpt lat="46.06456" lon="6.28849">
        <ele>673.54</ele>
        <time>2020-04-15T08:40:28Z</time>
      </trkpt>
      <trkpt lat="46.0647" lon="6.28829">
        <ele>673.54</ele>
        <time>2020-04-15T08:40:29Z</time>
      </trkpt>
      <trkpt lat="46.06485" lon="6.28824">
        <ele>673.06</ele>
        <time>2020-04-15T08:40:30Z</time>
      </trkpt>
      <trkpt lat="46.06502" lon="6.28819">
        <ele>672.1</ele>
        <time>2020-04-15T08:40:31Z</time>
      </trkpt>
      <trkpt lat="46.06613" lon="6.28753">
        <ele>666.81</ele>
        <time>2020-04-15T08:40:36Z</time>
      </trkpt>
      <trkpt lat="46.06732" lon="6.28683">
        <ele>661.04</ele>
        <time>2020-04-15T08:40:41Z</time>
      </trkpt>
      <trkpt lat="46.06756" lon="6.28679">
        <ele>660.08</ele>
        <time>2020-04-15T08:40:42Z</time>
      </trkpt>
      <trkpt lat="46.0678" lon="6.28674">
        <ele>658.64</ele>
        <time>2020-04-15T08:40:43Z</time>
      </trkpt>
      <trkpt lat="46.06804" lon="6.28674">
        <ele>657.68</ele>
        <time>2020-04-15T08:40:44Z</time>
      </trkpt>
      <trkpt lat="46.06828" lon="6.28679">
        <ele>656.24</ele>
        <time>2020-04-15T08:40:45Z</time>
      </trkpt>
      <trkpt lat="46.06851" lon="6.28685">
        <ele>655.28</ele>
        <time>2020-04-15T08:40:46Z</time>
      </trkpt>
      <trkpt lat="46.06873" lon="6.28697">
        <ele>653.83</ele>
        <time>2020-04-15T08:40:47Z</time>
      </trkpt>
      <trkpt lat="46.06895" lon="6.2871">
        <ele>652.87</ele>
        <time>2020-04-15T08:40:48Z</time>
      </trkpt>
      <trkpt lat="46.06917" lon="6.28724">
        <ele>651.91</ele>
        <time>2020-04-15T08:40:49Z</time>
      </trkpt>
      <trkpt lat="46.07023" lon="6.28798">
        <ele>646.62</ele>
        <time>2020-04-15T08:40:54Z</time>
      </trkpt>
      <trkpt lat="46.07046" lon="6.28805">
        <ele>645.66</ele>
        <time>2020-04-15T08:40:55Z</time>
      </trkpt>
      <trkpt lat="46.07069" lon="6.28811">
        <ele>644.7</ele>
        <time>2020-04-15T08:40:56Z</time>
      </trkpt>
      <trkpt lat="46.07093" lon="6.28816">
        <ele>643.74</ele>
        <time>2020-04-15T08:40:57Z</time>
      </trkpt>
      <trkpt lat="46.07117" lon="6.28819">
        <ele>642.3</ele>
        <time>2020-04-15T08:40:58Z</time>
      </trkpt>
      <trkpt lat="46.07353" lon="6.28858">
        <ele>627.88</ele>
        <time>2020-04-15T08:41:08Z</time>
      </trkpt>
      <trkpt lat="46.07375" lon="6.28873">
        <ele>626.44</ele>
        <time>2020-04-15T08:41:09Z</time>
      </trkpt>
      <trkpt lat="46.07396" lon="6.2889">
        <ele>624.99</ele>
        <time>2020-04-15T08:41:10Z</time>
      </trkpt>
      <trkpt lat="46.07415" lon="6.28912">
        <ele>623.55</ele>
        <time>2020-04-15T08:41:11Z</time>
      </trkpt>
      <trkpt lat="46.07431" lon="6.28936">
        <ele>622.59</ele>
        <time>2020-04-15T08:41:12Z</time>
      </trkpt>
      <trkpt lat="46.07446" lon="6.28961">
        <ele>621.15</ele>
        <time>2020-04-15T08:41:13Z</time>
      </trkpt>
      <trkpt lat="46.07459" lon="6.28987">
        <ele>620.19</ele>
        <time>2020-04-15T08:41:14Z</time>
      </trkpt>
      <trkpt lat="46.07469" lon="6.29016">
        <ele>619.23</ele>
        <time>2020-04-15T08:41:15Z</time>
      </trkpt>
      <trkpt lat="46.07476" lon="6.29046">
        <ele>618.26</ele>
        <time>2020-04-15T08:41:16Z</time>
      </trkpt>
      <trkpt lat="46.07484" lon="6.29077">
        <ele>617.78</ele>
        <time>2020-04-15T08:41:17Z</time>
      </trkpt>
      <trkpt lat="46.07509" lon="6.29173">
        <ele>615.38</ele>
        <time>2020-04-15T08:41:21Z</time>
      </trkpt>
      <trkpt lat="46.07517" lon="6.2919">
        <ele>614.42</ele>
        <time>2020-04-15T08:41:22Z</time>
      </trkpt>
      <trkpt lat="46.07518" lon="6.29217">
        <ele>613.94</ele>
        <time>2020-04-15T08:41:23Z</time>
      </trkpt>
      <trkpt lat="46.07512" lon="6.29237">
        <ele>612.5</ele>
        <time>2020-04-15T08:41:24Z</time>
      </trkpt>
      <trkpt lat="46.07504" lon="6.29259">
        <ele>612.5</ele>
        <time>2020-04-15T08:41:25Z</time>
      </trkpt>
      <trkpt lat="46.07496" lon="6.29283">
        <ele>612.02</ele>
        <time>2020-04-15T08:41:26Z</time>
      </trkpt>
      <trkpt lat="46.07478" lon="6.29337">
        <ele>610.57</ele>
        <time>2020-04-15T08:41:28Z</time>
      </trkpt>
      <trkpt lat="46.07468" lon="6.29365">
        <ele>610.09</ele>
        <time>2020-04-15T08:41:29Z</time>
      </trkpt>
      <trkpt lat="46.07454" lon="6.2939">
        <ele>609.13</ele>
        <time>2020-04-15T08:41:30Z</time>
      </trkpt>
      <trkpt lat="46.07327" lon="6.29585">
        <ele>602.4</ele>
        <time>2020-04-15T08:41:39Z</time>
      </trkpt>
      <trkpt lat="46.07203" lon="6.29735">
        <ele>594.23</ele>
        <time>2020-04-15T08:41:48Z</time>
      </trkpt>
      <trkpt lat="46.07149" lon="6.29799">
        <ele>590.39</ele>
        <time>2020-04-15T08:41:53Z</time>
      </trkpt>
      <trkpt lat="46.07142" lon="6.29814">
        <ele>589.43</ele>
        <time>2020-04-15T08:41:54Z</time>
      </trkpt>
      <trkpt lat="46.07088" lon="6.29969">
        <ele>585.58</ele>
        <time>2020-04-15T08:42:03Z</time>
      </trkpt>
      <trkpt lat="46.0708" lon="6.30029">
        <ele>584.62</ele>
        <time>2020-04-15T08:42:08Z</time>
      </trkpt>
      <trkpt lat="46.07077" lon="6.30053">
        <ele>585.1</ele>
        <time>2020-04-15T08:42:09Z</time>
      </trkpt>
      <trkpt lat="46.07078" lon="6.30057">
        <ele>585.58</ele>
        <time>2020-04-15T08:42:10Z</time>
      </trkpt>
      <trkpt lat="46.07085" lon="6.30078">
        <ele>585.1</ele>
        <time>2020-04-15T08:42:11Z</time>
      </trkpt>
      <trkpt lat="46.07083" lon="6.30092">
        <ele>585.1</ele>
        <time>2020-04-15T08:42:12Z</time>
      </trkpt>
      <trkpt lat="46.07079" lon="6.30105">
        <ele>584.62</ele>
        <time>2020-04-15T08:42:13Z</time>
      </trkpt>
      <trkpt lat="46.07073" lon="6.30117">
        <ele>584.62</ele>
        <time>2020-04-15T08:42:14Z</time>
      </trkpt>
      <trkpt lat="46.07067" lon="6.30131">
        <ele>584.62</ele>
        <time>2020-04-15T08:42:15Z</time>
      </trkpt>
      <trkpt lat="46.07059" lon="6.3015">
        <ele>584.14</ele>
        <time>2020-04-15T08:42:16Z</time>
      </trkpt>
      <trkpt lat="46.07057" lon="6.30161">
        <ele>583.66</ele>
        <time>2020-04-15T08:42:17Z</time>
      </trkpt>
      <trkpt lat="46.07053" lon="6.30177">
        <ele>583.18</ele>
        <time>2020-04-15T08:42:18Z</time>
      </trkpt>
      <trkpt lat="46.07047" lon="6.30206">
        <ele>582.22</ele>
        <time>2020-04-15T08:42:20Z</time>
      </trkpt>
      <trkpt lat="46.07044" lon="6.30219">
        <ele>581.73</ele>
        <time>2020-04-15T08:42:21Z</time>
      </trkpt>
      <trkpt lat="46.07031" lon="6.30238">
        <ele>581.25</ele>
        <time>2020-04-15T08:42:22Z</time>
      </trkpt>
      <trkpt lat="46.07026" lon="6.3024">
        <ele>580.29</ele>
        <time>2020-04-15T08:42:23Z</time>
      </trkpt>
      <trkpt lat="46.07014" lon="6.30246">
        <ele>579.33</ele>
        <time>2020-04-15T08:42:24Z</time>
      </trkpt>
      <trkpt lat="46.06898" lon="6.30303">
        <ele>575.01</ele>
        <time>2020-04-15T08:42:33Z</time>
      </trkpt>
      <trkpt lat="46.06872" lon="6.30315">
        <ele>575.49</ele>
        <time>2020-04-15T08:42:38Z</time>
      </trkpt>
      <trkpt lat="46.0687" lon="6.30316">
        <ele>575.97</ele>
        <time>2020-04-15T08:42:39Z</time>
      </trkpt>
      <trkpt lat="46.06859" lon="6.30321">
        <ele>575.97</ele>
        <time>2020-04-15T08:42:40Z</time>
      </trkpt>
      <trkpt lat="46.06859" lon="6.30326">
        <ele>575.97</ele>
        <time>2020-04-15T08:42:41Z</time>
      </trkpt>
      <trkpt lat="46.06859" lon="6.30336">
        <ele>575.97</ele>
        <time>2020-04-15T08:42:42Z</time>
      </trkpt>
      <trkpt lat="46.06858" lon="6.30347">
        <ele>575.97</ele>
        <time>2020-04-15T08:42:43Z</time>
      </trkpt>
      <trkpt lat="46.06858" lon="6.30358">
        <ele>575.49</ele>
        <time>2020-04-15T08:42:44Z</time>
      </trkpt>
      <trkpt lat="46.06858" lon="6.30371">
        <ele>575.01</ele>
        <time>2020-04-15T08:42:45Z</time>
      </trkpt>
      <trkpt lat="46.06857" lon="6.30384">
        <ele>574.04</ele>
        <time>2020-04-15T08:42:46Z</time>
      </trkpt>
      <trkpt lat="46.06853" lon="6.30395">
        <ele>573.08</ele>
        <time>2020-04-15T08:42:47Z</time>
      </trkpt>
      <trkpt lat="46.06849" lon="6.30408">
        <ele>572.12</ele>
        <time>2020-04-15T08:42:48Z</time>
      </trkpt>
      <trkpt lat="46.06823" lon="6.30481">
        <ele>570.2</ele>
        <time>2020-04-15T08:42:56Z</time>
      </trkpt>
      <trkpt lat="46.06793" lon="6.3057">
        <ele>566.83</ele>
        <time>2020-04-15T08:43:03Z</time>
      </trkpt>
      <trkpt lat="46.06725" lon="6.30741">
        <ele>560.59</ele>
        <time>2020-04-15T08:43:15Z</time>
      </trkpt>
      <trkpt lat="46.06658" lon="6.30865">
        <ele>556.26</ele>
        <time>2020-04-15T08:43:24Z</time>
      </trkpt>
      <trkpt lat="46.06648" lon="6.30884">
        <ele>555.3</ele>
        <time>2020-04-15T08:43:26Z</time>
      </trkpt>
      <trkpt lat="46.06644" lon="6.30891">
        <ele>555.3</ele>
        <time>2020-04-15T08:43:27Z</time>
      </trkpt>
      <trkpt lat="46.06641" lon="6.30897">
        <ele>554.82</ele>
        <time>2020-04-15T08:43:28Z</time>
      </trkpt>
      <trkpt lat="46.06644" lon="6.30909">
        <ele>554.82</ele>
        <time>2020-04-15T08:43:29Z</time>
      </trkpt>
      <trkpt lat="46.06648" lon="6.30911">
        <ele>554.34</ele>
        <time>2020-04-15T08:43:30Z</time>
      </trkpt>
      <trkpt lat="46.06652" lon="6.30911">
        <ele>554.34</ele>
        <time>2020-04-15T08:43:31Z</time>
      </trkpt>
      <trkpt lat="46.06659" lon="6.30909">
        <ele>554.34</ele>
        <time>2020-04-15T08:43:32Z</time>
      </trkpt>
      <trkpt lat="46.06668" lon="6.30907">
        <ele>554.34</ele>
        <time>2020-04-15T08:43:33Z</time>
      </trkpt>
      <trkpt lat="46.06677" lon="6.30904">
        <ele>554.34</ele>
        <time>2020-04-15T08:43:34Z</time>
      </trkpt>
      <trkpt lat="46.06686" lon="6.30902">
        <ele>554.34</ele>
        <time>2020-04-15T08:43:35Z</time>
      </trkpt>
      <trkpt lat="46.06693" lon="6.30899">
        <ele>553.86</ele>
        <time>2020-04-15T08:43:36Z</time>
      </trkpt>
      <trkpt lat="46.067" lon="6.30888">
        <ele>553.86</ele>
        <time>2020-04-15T08:43:37Z</time>
      </trkpt>
      <trkpt lat="46.06709" lon="6.30875">
        <ele>553.86</ele>
        <time>2020-04-15T08:43:38Z</time>
      </trkpt>
      <trkpt lat="46.06747" lon="6.30815">
        <ele>554.34</ele>
        <time>2020-04-15T08:43:44Z</time>
      </trkpt>
      <trkpt lat="46.0675" lon="6.30811">
        <ele>554.34</ele>
        <time>2020-04-15T08:43:45Z</time>
      </trkpt>
      <trkpt lat="46.06752" lon="6.30808">
        <ele>554.34</ele>
        <time>2020-04-15T08:43:46Z</time>
      </trkpt>
      <trkpt lat="46.0675" lon="6.30803">
        <ele>554.82</ele>
        <time>2020-04-15T08:43:55Z</time>
      </trkpt>
    </trkseg>
  </trk>
</gpx>